Time;durP1;ratioP1;P1;durP2;ratioP2;P2;SDS_P1;SDS_P2;PMS_P1;PMS_P2;Temp;Humidity;BMP_temperature;BMP_pressure;BME280_temperature;BME280_humidity;BME280_pressure;Samples;Min_cycle;Max_cycle;Signal;HPM_P1;HPM_P2
2023/10/13 00:01:54;;;;;;;35.13;18.73;;;;;17.80;100711.00;;;;5023173;28;20233;-72
2023/10/13 00:04:42;;;;;;;32.73;18.33;;;;;17.80;100717.00;;;;5023533;28;20865;-73
2023/10/13 00:07:28;;;;;;;32.97;17.57;;;;;17.90;100709.00;;;;5025054;28;20908;-72
2023/10/13 00:10:18;;;;;;;35.77;17.47;;;;;17.90;100716.00;;;;5018895;28;20245;-74
2023/10/13 00:13:12;;;;;;;35.70;17.37;;;;;17.90;100704.00;;;;5017335;28;20230;-73
2023/10/13 00:15:58;;;;;;;29.33;15.80;;;;;17.90;100707.00;;;;5024031;28;20225;-72
2023/10/13 00:18:48;;;;;;;34.03;16.17;;;;;17.90;100694.00;;;;5025200;28;20722;-73
2023/10/13 00:21:35;;;;;;;28.40;16.30;;;;;17.80;100693.00;;;;5025099;28;20357;-73
2023/10/13 00:24:23;;;;;;;35.20;16.03;;;;;17.90;100693.00;;;;5023858;28;20232;-72
2023/10/13 00:27:28;;;;;;;27.87;15.50;;;;;17.90;100686.00;;;;5015915;28;20616;-75
2023/10/13 00:30:22;;;;;;;29.40;14.60;;;;;17.80;100682.00;;;;5022005;28;20221;-72
2023/10/13 00:33:09;;;;;;;28.97;15.33;;;;;17.90;100683.00;;;;5024688;28;20230;-72
2023/10/13 00:35:58;;;;;;;29.17;15.37;;;;;17.90;100678.00;;;;5023299;28;20718;-69
2023/10/13 00:38:48;;;;;;;32.63;15.10;;;;;17.90;100664.00;;;;5023929;28;20249;-73
2023/10/13 00:41:50;;;;;;;26.20;14.90;;;;;17.90;100655.00;;;;5022214;28;20286;-72
2023/10/13 00:44:42;;;;;;;26.37;14.43;;;;;17.90;100655.00;;;;5021289;28;20240;-72
2023/10/13 00:47:47;;;;;;;24.47;14.60;;;;;17.90;100664.00;;;;5021123;28;20225;-72
2023/10/13 00:50:36;;;;;;;25.17;14.33;;;;;17.80;100663.00;;;;5024785;28;20583;-71
2023/10/13 00:53:25;;;;;;;27.13;15.23;;;;;17.90;100657.00;;;;5020459;28;20237;-73
2023/10/13 00:56:18;;;;;;;27.80;14.60;;;;;17.90;100662.00;;;;5025102;28;20584;-70
2023/10/13 00:59:03;;;;;;;34.20;16.00;;;;;17.90;100651.00;;;;5018336;28;20738;-74
2023/10/13 01:01:54;;;;;;;31.33;16.30;;;;;17.90;100643.00;;;;5034972;28;20776;-72
2023/10/13 01:04:40;;;;;;;25.53;15.63;;;;;17.90;100656.00;;;;5027451;28;20751;-74
2023/10/13 01:07:26;;;;;;;25.67;15.17;;;;;17.90;100642.00;;;;5019443;28;20282;-72
2023/10/13 01:10:14;;;;;;;30.63;15.83;;;;;17.90;100639.00;;;;5018021;28;20222;-72
2023/10/13 01:13:02;;;;;;;29.00;16.23;;;;;17.90;100641.00;;;;5024708;28;20228;-74
2023/10/13 01:15:49;;;;;;;29.50;15.10;;;;;17.90;100643.00;;;;5024214;28;20233;-73
2023/10/13 01:18:40;;;;;;;33.23;15.63;;;;;17.90;100641.00;;;;5023462;28;20241;-72
2023/10/13 01:21:28;;;;;;;34.27;15.27;;;;;17.90;100642.00;;;;5023748;28;20237;-74
2023/10/13 01:24:15;;;;;;;26.73;15.10;;;;;17.90;100630.00;;;;5018462;28;20276;-72
2023/10/13 01:27:13;;;;;;;27.73;15.27;;;;;17.90;100624.00;;;;5024291;28;20229;-73
2023/10/13 01:30:05;;;;;;;35.17;15.53;;;;;17.90;100622.00;;;;5024239;28;20221;-71
2023/10/13 01:32:51;;;;;;;28.27;14.53;;;;;17.90;100617.00;;;;5024660;28;20285;-74
2023/10/13 01:35:42;;;;;;;25.43;13.50;;;;;17.90;100623.00;;;;5024727;28;20233;-72
2023/10/13 01:38:27;;;;;;;28.17;15.10;;;;;17.80;100623.00;;;;5022818;28;20228;-73
2023/10/13 01:41:16;;;;;;;27.77;14.27;;;;;17.80;100622.00;;;;5018092;28;20854;-72
2023/10/13 01:44:04;;;;;;;29.70;14.77;;;;;17.80;100617.00;;;;5019468;28;20702;-71
2023/10/13 01:46:51;;;;;;;31.60;14.07;;;;;17.80;100606.00;;;;5029630;28;20371;-72
2023/10/13 01:49:41;;;;;;;25.90;14.20;;;;;17.80;100604.00;;;;5024025;28;20323;-74
2023/10/13 01:52:29;;;;;;;25.93;14.17;;;;;17.80;100609.00;;;;5024080;28;20732;-74
2023/10/13 01:55:15;;;;;;;22.97;13.53;;;;;17.80;100605.00;;;;5022180;28;20684;-73
2023/10/13 01:58:03;;;;;;;23.73;14.23;;;;;17.80;100593.00;;;;5027917;28;20229;-73
2023/10/13 02:00:51;;;;;;;22.57;13.67;;;;;17.80;100596.00;;;;5027994;28;20241;-73
2023/10/13 02:03:42;;;;;;;27.67;13.83;;;;;17.80;100589.00;;;;5024937;28;20749;-74
2023/10/13 02:06:32;;;;;;;28.87;14.03;;;;;17.90;100576.00;;;;5026974;28;20882;-74
2023/10/13 02:09:25;;;;;;;28.60;13.47;;;;;17.90;100574.00;;;;5028198;28;20221;-74
2023/10/13 02:12:11;;;;;;;23.13;13.97;;;;;17.90;100566.00;;;;5020669;28;20718;-75
2023/10/13 02:15:01;;;;;;;27.13;14.07;;;;;17.90;100559.00;;;;5028132;28;20237;-73
2023/10/13 02:17:51;;;;;;;25.87;14.27;;;;;17.90;100556.00;;;;5026564;28;20819;-70
2023/10/13 02:20:43;;;;;;;21.90;13.07;;;;;17.90;100553.00;;;;5023956;28;20318;-74
2023/10/13 02:23:29;;;;;;;23.47;13.57;;;;;17.90;100553.00;;;;5023222;28;20933;-73
2023/10/13 02:26:27;;;;;;;25.60;13.37;;;;;17.90;100550.00;;;;5022130;28;20275;-76
2023/10/13 02:29:14;;;;;;;27.63;14.20;;;;;17.90;100559.00;;;;5019467;28;20217;-73
2023/10/13 02:32:04;;;;;;;23.73;13.53;;;;;17.90;100545.00;;;;5025086;28;20237;-73
2023/10/13 02:34:50;;;;;;;24.70;13.53;;;;;17.90;100546.00;;;;5021551;28;20229;-74
2023/10/13 02:37:35;;;;;;;24.20;14.10;;;;;17.90;100538.00;;;;5022572;28;20237;-75
2023/10/13 02:40:23;;;;;;;25.87;13.93;;;;;17.90;100527.00;;;;5023395;28;20694;-74
2023/10/13 02:43:10;;;;;;;22.87;14.07;;;;;17.90;100523.00;;;;5019741;28;20237;-75
2023/10/13 02:45:59;;;;;;;26.37;14.20;;;;;17.90;100520.00;;;;5027368;28;20280;-73
2023/10/13 02:48:46;;;;;;;26.43;13.70;;;;;17.90;100517.00;;;;5024627;28;20237;-73
2023/10/13 02:51:35;;;;;;;24.13;12.77;;;;;17.90;100522.00;;;;5026344;28;20609;-73
2023/10/13 02:54:21;;;;;;;24.87;13.57;;;;;17.90;100512.00;;;;5025313;28;20232;-76
2023/10/13 02:57:07;;;;;;;24.97;12.93;;;;;17.90;100507.00;;;;5027349;28;20232;-71
2023/10/13 02:59:58;;;;;;;27.50;13.80;;;;;17.90;100502.00;;;;5027518;28;20841;-74
2023/10/13 03:02:55;;;;;;;20.07;13.20;;;;;17.90;100495.00;;;;5017321;28;20358;-72
2023/10/13 03:05:42;;;;;;;30.23;14.23;;;;;17.90;100497.00;;;;5025634;28;20614;-71
2023/10/13 03:08:31;;;;;;;26.43;12.83;;;;;18.00;100488.00;;;;5030770;28;20236;-73
2023/10/13 03:11:21;;;;;;;21.77;12.33;;;;;18.00;100492.00;;;;5026585;28;20233;-74
2023/10/13 03:14:07;;;;;;;21.80;12.73;;;;;18.00;100489.00;;;;5027025;28;20307;-73
2023/10/13 03:16:54;;;;;;;22.40;12.53;;;;;18.00;100486.00;;;;5027009;28;20233;-73
2023/10/13 03:19:46;;;;;;;25.17;13.03;;;;;18.00;100490.00;;;;5025330;28;20234;-74
2023/10/13 03:22:32;;;;;;;21.10;13.43;;;;;17.90;100487.00;;;;5024459;28;20904;-73
2023/10/13 03:25:23;;;;;;;25.73;12.40;;;;;18.00;100489.00;;;;5018565;28;20806;-73
2023/10/13 03:28:13;;;;;;;22.83;13.17;;;;;18.00;100478.00;;;;5023445;28;20353;-72
2023/10/13 03:31:01;;;;;;;24.90;13.40;;;;;17.90;100477.00;;;;5026184;28;20329;-73
2023/10/13 03:33:48;;;;;;;28.50;12.93;;;;;18.00;100471.00;;;;5025366;28;20867;-73
2023/10/13 03:39:48;;;;;;;23.13;12.10;;;;;17.90;100466.00;;;;5006953;28;20722;-74
2023/10/13 03:42:39;;;;;;;18.90;11.93;;;;;17.90;100465.00;;;;5023300;28;20230;-73
2023/10/13 03:45:26;;;;;;;18.43;11.40;;;;;17.90;100453.00;;;;5020608;28;20225;-74
2023/10/13 03:48:28;;;;;;;21.90;12.43;;;;;17.90;100463.00;;;;5018845;28;20393;-73
2023/10/13 03:51:15;;;;;;;20.27;11.43;;;;;17.90;100459.00;;;;5018383;28;20650;-72
2023/10/13 03:54:07;;;;;;;23.80;11.97;;;;;17.90;100469.00;;;;5025107;28;20232;-74
2023/10/13 03:56:56;;;;;;;24.37;12.10;;;;;17.90;100452.00;;;;5023987;28;20253;-72
2023/10/13 03:59:47;;;;;;;24.70;12.57;;;;;17.90;100437.00;;;;5024635;28;20238;-73
2023/10/13 04:02:33;;;;;;;25.30;12.53;;;;;17.90;100436.00;;;;5016641;28;20234;-75
2023/10/13 04:05:39;;;;;;;20.60;12.50;;;;;17.90;100439.00;;;;5021427;28;20238;-73
2023/10/13 04:12:13;;;;;;;21.27;12.23;;;;;17.90;100414.00;;;;5003812;28;20234;-72
2023/10/13 04:17:58;;;;;;;19.37;10.70;;;;;17.90;100408.00;;;;5004334;28;20734;-72
2023/10/13 04:20:46;;;;;;;21.53;11.10;;;;;17.90;100400.00;;;;5014059;28;20448;-73
2023/10/13 04:24:08;;;;;;;19.43;11.10;;;;;17.90;100393.00;;;;5012915;28;20238;-75
2023/10/13 04:26:59;;;;;;;22.07;10.77;;;;;17.90;100383.00;;;;5018156;28;20305;-74
2023/10/13 04:29:51;;;;;;;20.73;11.10;;;;;17.90;100375.00;;;;5009967;28;20754;-75
2023/10/13 04:32:38;;;;;;;18.20;10.43;;;;;17.90;100378.00;;;;5006405;28;20242;-74
2023/10/13 04:35:29;;;;;;;21.10;11.67;;;;;17.90;100378.00;;;;4999925;28;20289;-73
2023/10/13 04:38:19;;;;;;;25.53;11.93;;;;;17.90;100380.00;;;;5017666;28;20225;-72
2023/10/13 04:41:22;;;;;;;23.90;12.30;;;;;17.90;100369.00;;;;5009731;28;20238;-73
2023/10/13 04:44:47;;;;;;;19.40;12.13;;;;;17.90;100371.00;;;;5002328;28;20229;-73
2023/10/13 04:47:41;;;;;;;22.57;11.93;;;;;17.90;100358.00;;;;5004254;28;20292;-72
2023/10/13 04:50:41;;;;;;;20.07;12.00;;;;;17.90;100351.00;;;;5008834;28;20748;-73
2023/10/13 04:53:30;;;;;;;26.07;13.13;;;;;17.90;100332.00;;;;4999864;28;20242;-70
2023/10/13 04:59:35;;;;;;;32.53;14.40;;;;;18.00;100322.00;;;;5003673;28;20730;-72
2023/10/13 05:05:45;;;;;;;22.93;13.80;;;;;17.90;100315.00;;;;5001614;28;20230;-74
2023/10/13 05:46:02;;;;;;;22.07;12.43;;;;;18.00;100259.00;;;;5018836;28;20237;-72
2023/10/13 05:49:09;;;;;;;27.57;12.60;;;;;18.00;100259.00;;;;5021036;28;20772;-73
2023/10/13 05:52:06;;;;;;;22.03;12.37;;;;;18.00;100266.00;;;;5018756;28;20289;-73
2023/10/13 06:28:43;;;;;;;19.97;12.03;;;;;18.30;100256.00;;;;5023418;28;20299;-71
2023/10/13 06:31:30;;;;;;;22.57;12.17;;;;;18.40;100240.00;;;;5020627;28;20249;-71
2023/10/13 06:34:20;;;;;;;19.70;11.70;;;;;18.40;100236.00;;;;5010258;28;20422;-72
2023/10/13 06:37:22;;;;;;;19.37;11.37;;;;;18.40;100229.00;;;;5014078;28;20234;-73
2023/10/13 06:40:22;;;;;;;20.77;12.10;;;;;18.40;100222.00;;;;5012676;28;20233;-70
2023/10/13 06:43:16;;;;;;;19.07;11.63;;;;;18.50;100237.00;;;;5015261;28;20656;-71
2023/10/13 06:46:03;;;;;;;20.27;10.77;;;;;18.40;100236.00;;;;5018672;28;20229;-73
2023/10/13 06:48:52;;;;;;;19.70;10.53;;;;;18.40;100243.00;;;;5018496;28;20227;-72
2023/10/13 06:51:39;;;;;;;19.30;11.20;;;;;18.50;100239.00;;;;5011024;28;20272;-71
2023/10/13 06:54:28;;;;;;;17.50;10.90;;;;;18.40;100235.00;;;;5010532;28;20770;-74
2023/10/13 06:57:15;;;;;;;19.17;10.77;;;;;18.40;100236.00;;;;5025338;28;20233;-74
2023/10/13 07:00:08;;;;;;;20.17;10.77;;;;;18.40;100233.00;;;;5020938;28;20224;-73
2023/10/13 07:03:05;;;;;;;20.13;10.73;;;;;18.50;100239.00;;;;5018806;28;20226;-73
2023/10/13 07:05:53;;;;;;;21.20;10.93;;;;;18.50;100227.00;;;;5021602;28;20233;-72
2023/10/13 07:08:39;;;;;;;16.87;10.63;;;;;18.50;100239.00;;;;5024232;28;20241;-74
2023/10/13 07:11:33;;;;;;;17.97;12.00;;;;;18.60;100228.00;;;;5017537;28;20230;-73
2023/10/13 07:14:20;;;;;;;21.80;11.10;;;;;18.60;100230.00;;;;5022969;28;20229;-74
2023/10/13 07:17:08;;;;;;;23.10;12.53;;;;;18.60;100237.00;;;;5021924;28;20233;-73
2023/10/13 07:20:03;;;;;;;19.77;12.60;;;;;18.70;100238.00;;;;5020839;28;20732;-73
2023/10/13 07:23:03;;;;;;;20.10;12.10;;;;;18.70;100231.00;;;;5021843;28;20245;-73
2023/10/13 07:25:54;;;;;;;22.27;11.93;;;;;18.80;100227.00;;;;5016289;28;20798;-73
2023/10/13 07:28:43;;;;;;;18.00;11.10;;;;;18.80;100231.00;;;;5022569;28;20355;-74
2023/10/13 07:31:30;;;;;;;19.43;10.50;;;;;18.90;100228.00;;;;5025342;28;20305;-74
2023/10/13 07:34:24;;;;;;;16.33;10.10;;;;;19.00;100217.00;;;;5013315;28;20371;-74
2023/10/13 07:37:16;;;;;;;22.07;10.07;;;;;19.00;100219.00;;;;5020153;28;20306;-72
2023/10/13 07:40:12;;;;;;;21.07;9.60;;;;;19.00;100220.00;;;;5020544;28;20230;-74
2023/10/13 07:43:00;;;;;;;14.00;8.83;;;;;19.00;100220.00;;;;5016835;28;20234;-72
2023/10/13 07:45:50;;;;;;;21.47;9.30;;;;;19.10;100226.00;;;;5016361;28;20240;-74
2023/10/13 07:48:37;;;;;;;14.30;8.00;;;;;19.10;100215.00;;;;5020986;28;20237;-74
2023/10/13 07:51:26;;;;;;;15.33;8.00;;;;;19.10;100220.00;;;;5012733;28;20234;-74
2023/10/13 07:54:21;;;;;;;15.57;7.90;;;;;19.20;100210.00;;;;5019110;28;20277;-73
2023/10/13 07:57:08;;;;;;;18.97;7.17;;;;;19.20;100211.00;;;;5016820;28;20626;-73
2023/10/13 08:00:06;;;;;;;14.00;7.23;;;;;19.20;100207.00;;;;5018967;28;20238;-72
2023/10/13 08:03:07;;;;;;;18.77;7.90;;;;;19.20;100213.00;;;;5022364;28;20242;-73
2023/10/13 08:05:58;;;;;;;14.80;7.07;;;;;19.30;100209.00;;;;5010854;28;20353;-72
2023/10/13 08:08:49;;;;;;;22.50;7.17;;;;;19.40;100212.00;;;;5018814;28;20408;-74
2023/10/13 08:11:38;;;;;;;18.10;7.00;;;;;19.50;100202.00;;;;5014883;28;20723;-72
2023/10/13 08:14:29;;;;;;;16.83;6.50;;;;;19.60;100207.00;;;;5010323;28;20726;-71
2023/10/13 08:17:30;;;;;;;14.90;6.60;;;;;19.60;100207.00;;;;5019755;28;20233;-72
2023/10/13 08:20:17;;;;;;;13.00;6.23;;;;;19.60;100191.00;;;;5014022;28;20224;-72
2023/10/13 08:23:13;;;;;;;14.20;6.30;;;;;19.60;100182.00;;;;5016312;28;20369;-72
2023/10/13 08:32:36;;;;;;;17.50;6.80;;;;;19.80;100178.00;;;;5021587;28;20234;-72
2023/10/13 08:35:35;;;;;;;15.27;6.07;;;;;19.90;100163.00;;;;5024034;28;20238;-71
2023/10/13 08:38:28;;;;;;;21.20;6.47;;;;;19.90;100158.00;;;;5022356;28;20720;-74
2023/10/13 08:41:29;;;;;;;19.80;6.73;;;;;20.00;100157.00;;;;5020240;28;20229;-71
2023/10/13 08:44:32;;;;;;;13.70;6.30;;;;;20.00;100147.00;;;;5015568;28;20310;-73
2023/10/13 08:47:36;;;;;;;13.50;6.90;;;;;20.00;100145.00;;;;5015672;28;20241;-73
2023/10/13 08:50:47;;;;;;;12.80;6.23;;;;;20.00;100131.00;;;;5018889;28;20355;-73
2023/10/13 08:53:44;;;;;;;13.47;6.33;;;;;20.00;100127.00;;;;5021924;28;20240;-71
2023/10/13 08:56:34;;;;;;;14.83;6.37;;;;;20.10;100124.00;;;;5024198;28;20240;-73
2023/10/13 08:59:22;;;;;;;15.70;6.20;;;;;20.10;100119.00;;;;5019850;28;20227;-72
2023/10/13 09:02:17;;;;;;;15.90;6.27;;;;;20.10;100122.00;;;;5022016;28;20708;-73
2023/10/13 09:05:36;;;;;;;13.97;6.00;;;;;20.10;100122.00;;;;5016042;28;20845;-71
2023/10/13 09:08:15;;;;;;;11.97;5.57;;;;;20.20;100115.00;;;;5018423;28;20234;-72
2023/10/13 09:11:10;;;;;;;14.03;5.80;;;;;20.30;100098.00;;;;5020135;28;20229;-73
2023/10/13 09:14:03;;;;;;;11.83;5.67;;;;;20.30;100097.00;;;;5015191;28;20232;-69
2023/10/13 09:16:59;;;;;;;13.60;5.47;;;;;20.40;100095.00;;;;5015987;28;20715;-69
2023/10/13 09:19:55;;;;;;;13.37;5.60;;;;;20.50;100097.00;;;;5017273;28;20683;-72
2023/10/13 09:22:42;;;;;;;15.23;5.40;;;;;20.70;100081.00;;;;5010752;28;20234;-72
2023/10/13 09:25:33;;;;;;;11.00;5.33;;;;;20.80;100080.00;;;;5016743;28;20315;-72
2023/10/13 09:28:18;;;;;;;11.53;5.37;;;;;20.80;100081.00;;;;5012705;28;20238;-71
2023/10/13 09:31:09;;;;;;;13.07;5.37;;;;;20.80;100077.00;;;;5016497;28;20232;-71
2023/10/13 09:33:57;;;;;;;11.77;5.17;;;;;20.80;100067.00;;;;5016772;28;20613;-72
2023/10/13 09:36:47;;;;;;;9.60;5.40;;;;;20.80;100055.00;;;;5011518;28;20270;-72
2023/10/13 09:39:44;;;;;;;16.63;5.33;;;;;20.90;100064.00;;;;5013023;28;20237;-72
2023/10/13 09:42:30;;;;;;;14.77;5.30;;;;;21.00;100076.00;;;;5022219;28;20234;-71
2023/10/13 09:45:17;;;;;;;10.10;5.23;;;;;21.20;100042.00;;;;5020688;28;20371;-72
2023/10/13 09:48:16;;;;;;;13.70;4.93;;;;;21.30;100045.00;;;;5017455;28;20367;-72
2023/10/13 09:51:04;;;;;;;13.80;5.27;;;;;21.30;100050.00;;;;5019088;28;20718;-72
2023/10/13 09:53:58;;;;;;;15.17;5.70;;;;;21.40;100039.00;;;;5030000;28;20236;-72
2023/10/13 09:57:12;;;;;;;13.00;5.90;;;;;21.60;100054.00;;;;5014737;28;20328;-72
2023/10/13 10:00:07;;;;;;;12.77;5.33;;;;;21.90;100044.00;;;;5018528;28;20234;-72
2023/10/13 10:02:58;;;;;;;9.57;4.70;;;;;22.00;100027.00;;;;5023259;28;20249;-73
2023/10/13 10:06:03;;;;;;;12.40;5.37;;;;;22.00;100048.00;;;;5018615;28;20225;-72
2023/10/13 10:08:50;;;;;;;13.77;5.17;;;;;21.90;100052.00;;;;5018023;28;20722;-71
2023/10/13 10:12:25;;;;;;;10.27;4.53;;;;;22.00;100030.00;;;;5016240;28;20293;-74
2023/10/13 10:15:28;;;;;;;10.60;4.63;;;;;22.10;100017.00;;;;4979826;28;20243;-73
2023/10/13 10:18:22;;;;;;;14.60;5.00;;;;;22.20;100021.00;;;;4979574;28;20775;-74
2023/10/13 10:21:11;;;;;;;12.37;5.20;;;;;22.20;100043.00;;;;5023529;28;20633;-73
2023/10/13 10:23:57;;;;;;;13.80;5.33;;;;;22.20;100028.00;;;;5015931;28;20737;-73
2023/10/13 10:26:52;;;;;;;10.77;4.90;;;;;22.30;100043.00;;;;5017605;28;20229;-75
2023/10/13 10:29:38;;;;;;;13.17;5.40;;;;;22.30;100027.00;;;;5022347;28;20245;-75
2023/10/13 10:32:36;;;;;;;11.50;5.10;;;;;22.30;100025.00;;;;5027448;28;20226;-75
2023/10/13 10:35:26;;;;;;;13.67;5.00;;;;;22.30;100028.00;;;;5020469;28;20229;-73
2023/10/13 10:38:24;;;;;;;11.67;4.80;;;;;22.40;100008.00;;;;5014129;28;20964;-72
2023/10/13 10:41:13;;;;;;;11.30;4.97;;;;;22.50;100003.00;;;;5026410;28;20604;-73
2023/10/13 10:44:02;;;;;;;14.77;5.73;;;;;22.40;100007.00;;;;5026196;28;20238;-73
2023/10/13 10:46:57;;;;;;;12.40;5.97;;;;;22.50;100027.00;;;;5016732;28;20299;-73
2023/10/13 10:49:44;;;;;;;14.97;5.17;;;;;22.50;100013.00;;;;5017650;28;20236;-74
2023/10/13 10:52:36;;;;;;;13.87;5.80;;;;;22.60;100022.00;;;;5026956;28;20237;-73
2023/10/13 10:55:28;;;;;;;12.70;5.40;;;;;22.50;100023.00;;;;5023077;28;20230;-76
2023/10/13 10:58:28;;;;;;;13.60;5.37;;;;;22.50;100002.00;;;;5016523;28;20236;-74
2023/10/13 11:01:20;;;;;;;18.03;5.83;;;;;22.50;100006.00;;;;5019401;28;20238;-75
2023/10/13 11:04:18;;;;;;;12.87;5.60;;;;;22.50;100001.00;;;;5019567;28;20254;-73
2023/10/13 11:07:06;;;;;;;11.20;5.20;;;;;22.40;99991.00;;;;5018903;28;20317;-76
2023/10/13 11:10:05;;;;;;;12.53;5.87;;;;;22.40;100013.00;;;;5019500;28;20236;-75
2023/10/13 11:13:11;;;;;;;9.03;5.90;;;;;22.40;99985.00;;;;5012447;28;20798;-75
2023/10/13 11:15:58;;;;;;;10.67;5.60;;;;;22.40;99983.00;;;;5015724;28;20304;-74
2023/10/13 11:18:45;;;;;;;15.70;5.67;;;;;22.50;99971.00;;;;5020852;28;20229;-73
2023/10/13 11:21:32;;;;;;;16.70;5.57;;;;;22.50;99969.00;;;;5020995;28;20237;-75
2023/10/13 11:24:20;;;;;;;16.17;5.97;;;;;22.50;99973.00;;;;5015568;28;20378;-75
2023/10/13 11:27:16;;;;;;;9.27;5.13;;;;;22.50;99949.00;;;;5019044;28;20307;-75
2023/10/13 11:30:12;;;;;;;10.17;5.43;;;;;22.50;99945.00;;;;5020678;28;20369;-76
2023/10/13 11:32:59;;;;;;;12.77;5.53;;;;;22.50;99938.00;;;;5021162;28;20364;-73
2023/10/13 11:35:57;;;;;;;10.00;5.20;;;;;22.50;99941.00;;;;5018035;28;20233;-73
2023/10/13 11:38:49;;;;;;;15.57;5.40;;;;;22.50;99930.00;;;;5022911;28;20308;-73
2023/10/13 11:41:38;;;;;;;12.93;5.93;;;;;22.50;99941.00;;;;5019557;28;20229;-74
2023/10/13 11:44:43;;;;;;;11.20;5.27;;;;;22.60;99925.00;;;;5016618;28;20300;-74
2023/10/13 11:47:47;;;;;;;12.30;6.17;;;;;22.60;99915.00;;;;5018611;28;20238;-74
2023/10/13 11:50:35;;;;;;;12.60;5.90;;;;;22.80;99912.00;;;;5026605;28;20232;-75
2023/10/13 11:53:21;;;;;;;13.47;5.70;;;;;23.10;99907.00;;;;5022129;28;20233;-73
2023/10/13 11:56:10;;;;;;;12.13;5.23;;;;;23.30;99900.00;;;;5026465;28;20233;-76
2023/10/13 11:59:01;;;;;;;11.80;5.27;;;;;23.50;99896.00;;;;5019306;28;20245;-74
2023/10/13 12:04:54;;;;;;;11.17;5.20;;;;;23.70;99896.00;;;;5018873;28;20229;-74
2023/10/13 12:07:48;;;;;;;11.50;5.40;;;;;23.80;99888.00;;;;5023680;28;20348;-75
2023/10/13 12:10:38;;;;;;;13.73;5.00;;;;;24.00;99902.00;;;;5019124;28;20735;-76
2023/10/13 12:13:25;;;;;;;13.00;5.10;;;;;24.20;99900.00;;;;5013903;28;20364;-74
2023/10/13 12:16:12;;;;;;;11.87;5.00;;;;;24.20;99888.00;;;;5025582;28;20731;-74
2023/10/13 12:19:01;;;;;;;10.40;5.13;;;;;24.40;99873.00;;;;5020311;28;20225;-71
2023/10/13 12:21:48;;;;;;;15.77;5.27;;;;;24.60;99888.00;;;;5012971;28;20226;-73
2023/10/13 12:24:42;;;;;;;13.60;5.00;;;;;24.80;99888.00;;;;5020582;28;20237;-70
2023/10/13 12:27:35;;;;;;;10.05;5.40;;;;;24.80;99879.00;;;;5021980;28;20233;-71
2023/10/13 12:30:35;;;;;;;13.65;5.28;;;;;24.70;99875.00;;;;5020677;28;20356;-72
2023/10/13 12:33:36;;;;;;;15.90;5.47;;;;;24.70;99862.00;;;;5019241;28;20233;-68
2023/10/13 12:36:40;;;;;;;13.60;5.20;;;;;24.90;99853.00;;;;5009833;28;20237;-70
2023/10/13 12:49:15;;;;;;;13.57;5.18;;;;;24.40;99858.00;;;;5016172;28;20660;-69
2023/10/13 12:52:02;;;;;;;13.03;4.60;;;;;24.40;99850.00;;;;5020058;28;20716;-68
2023/10/13 12:54:58;;;;;;;17.93;5.43;;;;;24.30;99851.00;;;;5019657;28;20241;-69
2023/10/13 12:57:44;;;;;;;12.70;4.97;;;;;24.30;99853.00;;;;5024100;28;20252;-70
2023/10/13 13:00:33;;;;;;;16.42;5.75;;;;;24.20;99852.00;;;;5016548;28;20241;-71
2023/10/13 13:03:19;;;;;;;18.33;5.43;;;;;24.20;99857.00;;;;5015071;28;20280;-71
2023/10/13 13:06:07;;;;;;;12.77;5.17;;;;;24.20;99835.00;;;;5021970;28;20665;-72
2023/10/13 13:08:53;;;;;;;17.27;5.37;;;;;24.20;99847.00;;;;5016133;28;20234;-71
2023/10/13 13:11:41;;;;;;;15.10;5.70;;;;;24.20;99851.00;;;;5019533;28;20241;-71
2023/10/13 13:14:28;;;;;;;15.27;5.10;;;;;24.10;99858.00;;;;5025969;28;21008;-69
2023/10/13 13:17:15;;;;;;;17.00;5.22;;;;;24.10;99853.00;;;;5019129;28;20279;-70
2023/10/13 13:20:10;;;;;;;13.93;5.37;;;;;24.20;99853.00;;;;5019028;28;20234;-70
2023/10/13 13:23:04;;;;;;;13.17;5.30;;;;;24.40;99852.00;;;;5020250;28;20279;-70
2023/10/13 13:25:50;;;;;;;15.00;5.63;;;;;24.60;99848.00;;;;5020114;28;20284;-69
2023/10/13 13:28:38;;;;;;;10.97;5.03;;;;;24.70;99840.00;;;;5014439;28;20237;-72
2023/10/13 13:31:28;;;;;;;14.27;5.47;;;;;24.80;99839.00;;;;5023094;28;20268;-70
2023/10/13 13:34:15;;;;;;;12.37;5.03;;;;;24.70;99846.00;;;;5017655;28;20308;-70
2023/10/13 13:37:02;;;;;;;16.02;5.25;;;;;24.60;99839.00;;;;5017423;28;20225;-70
2023/10/13 13:39:52;;;;;;;14.52;5.13;;;;;24.60;99842.00;;;;5017314;28;20377;-70
2023/10/13 13:42:40;;;;;;;15.25;5.10;;;;;24.60;99846.00;;;;5023467;28;20245;-72
2023/10/13 13:45:28;;;;;;;14.82;5.45;;;;;24.60;99867.00;;;;5017138;28;20771;-70
2023/10/13 13:48:15;;;;;;;17.58;5.15;;;;;24.60;99829.00;;;;5018080;28;20292;-70
2023/10/13 13:51:06;;;;;;;19.48;5.65;;;;;24.50;99826.00;;;;5022712;28;20240;-71
2023/10/13 13:53:52;;;;;;;14.70;5.17;;;;;24.50;99840.00;;;;5023728;28;20329;-71
2023/10/13 13:56:39;;;;;;;16.45;5.70;;;;;24.50;99830.00;;;;5020574;28;20349;-70
2023/10/13 13:59:25;;;;;;;17.70;5.00;;;;;24.50;99830.00;;;;5022305;28;20237;-70
2023/10/13 14:02:20;;;;;;;14.17;4.80;;;;;24.30;99835.00;;;;5014739;28;20284;-72
2023/10/13 14:05:15;;;;;;;14.17;5.03;;;;;24.20;99837.00;;;;5016764;28;20288;-70
2023/10/13 14:08:02;;;;;;;11.00;4.57;;;;;24.10;99836.00;;;;5016923;28;20245;-70
2023/10/13 14:13:48;;;;;;;17.30;5.33;;;;;23.90;99827.00;;;;5007751;28;20731;-71
2023/10/13 14:16:37;;;;;;;14.63;5.27;;;;;23.80;99826.00;;;;5022795;28;20260;-71
2023/10/13 14:19:27;;;;;;;15.47;4.87;;;;;23.80;99842.00;;;;5013390;28;20228;-69
2023/10/13 14:22:15;;;;;;;15.63;4.80;;;;;23.80;99831.00;;;;5019824;28;20722;-68
2023/10/13 14:25:08;;;;;;;18.37;4.87;;;;;23.80;99843.00;;;;5014318;28;20362;-70
2023/10/13 14:27:58;;;;;;;12.37;4.63;;;;;23.60;99838.00;;;;5015193;28;20230;-69
2023/10/13 14:30:45;;;;;;;17.90;4.93;;;;;23.60;99821.00;;;;5022179;28;20307;-68
2023/10/13 14:33:37;;;;;;;15.73;4.07;;;;;23.60;99828.00;;;;5017482;28;20249;-71
2023/10/13 14:36:28;;;;;;;13.37;4.47;;;;;23.50;99839.00;;;;5014198;28;20254;-69
2023/10/13 14:39:20;;;;;;;17.37;5.00;;;;;23.50;99832.00;;;;5011614;28;20229;-68
2023/10/13 14:42:07;;;;;;;11.60;4.33;;;;;23.40;99842.00;;;;5032145;28;20683;-70
2023/10/13 14:44:56;;;;;;;15.17;4.63;;;;;23.50;99844.00;;;;5009725;28;20234;-70
2023/10/13 14:47:43;;;;;;;14.50;5.13;;;;;23.30;99843.00;;;;5014704;28;20237;-70
2023/10/13 14:50:30;;;;;;;14.93;4.70;;;;;23.20;99840.00;;;;5013889;28;20241;-69
2023/10/13 14:53:19;;;;;;;14.57;5.30;;;;;23.20;99845.00;;;;5018781;28;20225;-69
2023/10/13 14:56:08;;;;;;;17.23;4.53;;;;;23.30;99840.00;;;;5024072;28;20333;-70
2023/10/13 14:58:55;;;;;;;17.03;5.00;;;;;23.20;99829.00;;;;5019339;28;20232;-70
2023/10/13 15:01:41;;;;;;;13.20;4.40;;;;;23.10;99825.00;;;;5023343;28;20769;-71
2023/10/13 15:04:28;;;;;;;16.53;4.53;;;;;23.20;99828.00;;;;5019184;28;20303;-71
2023/10/13 15:07:16;;;;;;;11.87;5.27;;;;;23.10;99808.00;;;;5018076;28;20871;-70
2023/10/13 15:10:04;;;;;;;14.17;4.43;;;;;23.10;99824.00;;;;4995842;28;20919;-71
2023/10/13 15:12:51;;;;;;;13.07;5.00;;;;;23.10;99823.00;;;;5024192;28;20237;-71
2023/10/13 15:15:39;;;;;;;13.47;4.40;;;;;23.10;99829.00;;;;5014521;28;20754;-70
2023/10/13 15:18:25;;;;;;;13.13;4.47;;;;;23.00;99811.00;;;;5022362;28;20264;-71
2023/10/13 15:21:13;;;;;;;11.40;4.20;;;;;23.20;99798.00;;;;5026700;28;20721;-72
2023/10/13 15:24:03;;;;;;;12.03;4.07;;;;;23.00;99828.00;;;;5012604;28;20308;-70
2023/10/13 15:26:56;;;;;;;12.70;4.33;;;;;23.00;99826.00;;;;5019808;28;20619;-71
2023/10/13 15:29:50;;;;;;;12.93;5.10;;;;;23.00;99827.00;;;;5018271;28;20873;-71
2023/10/13 15:32:42;;;;;;;14.27;4.37;;;;;23.00;99826.00;;;;5022199;28;20710;-70
2023/10/13 15:35:30;;;;;;;11.43;4.37;;;;;23.00;99832.00;;;;5014515;28;20618;-71
2023/10/13 15:38:16;;;;;;;14.33;4.77;;;;;22.90;99842.00;;;;5024276;28;20718;-71
2023/10/13 15:41:04;;;;;;;10.37;4.07;;;;;23.00;99826.00;;;;5013935;28;21147;-70
2023/10/13 15:43:52;;;;;;;12.90;4.83;;;;;22.90;99841.00;;;;5018332;28;20241;-70
2023/10/13 15:46:38;;;;;;;12.67;4.80;;;;;22.90;99838.00;;;;5019589;28;21017;-69